Terminal Aerodrome Forecast
Issued by NWS

Home | Current Version | Previous Version | Text Only | Print | Product List | Glossary On
Versions: 1 2 3 4 5 6 7 8 9 10 11 12
000
FTUS45 KFGZ 201143
TAFSEZ
TAF
KSEZ 201143Z 2012/2112 VRB05KT P6SM FEW250
     FM201600 16010G15KT P6SM SKC
     FM201800 19016G24KT P6SM SKC
     FM210300 19012KT P6SM SKC=

USA.gov is the U.S. government's official web portal to all federal, state and local government web resources and services.